Time;durP1;ratioP1;P1;durP2;ratioP2;P2;SDS_P1;SDS_P2;PMS_P1;PMS_P2;Temp;Humidity;BMP_temperature;BMP_pressure;BME280_temperature;BME280_humidity;BME280_pressure;Samples;Min_cycle;Max_cycle;Signal;HPM_P1;HPM_P2
2022/04/10 00:00:56;;;;;;;;;;;;;;;4.37;82.95;99534.09;5050811;28;19975;-78
2022/04/10 00:03:22;;;;;;;;;;;;;;;4.34;83.46;99540.41;5049231;28;19932;-79
2022/04/10 00:05:48;;;;;;;;;;;;;;;4.32;82.82;99537.28;5032532;28;19921;-79
2022/04/10 00:08:14;;;;;;;;;;;;;;;4.27;83.93;99543.22;5051862;28;19991;-78
2022/04/10 00:10:39;;;;;;;;;;;;;;;4.28;83.80;99544.00;5054607;28;20011;-79
2022/04/10 00:13:04;;;;;;;;;;;;;;;4.26;83.89;99544.41;5054121;28;19963;-79
2022/04/10 00:15:30;;;;;;;;;;;;;;;4.25;83.82;99553.06;5054228;28;19963;-79
2022/04/10 00:17:55;;;;;;;;;;;;;;;4.19;84.30;99545.25;5055836;28;19999;-79
2022/04/10 00:20:20;;;;;;;;;;;;;;;4.16;84.35;99545.28;5053957;28;20011;-79
2022/04/10 00:22:46;;;;;;;;;;;;;;;4.16;84.36;99546.06;5054164;28;19968;-79
2022/04/10 00:25:12;;;;;;;;;;;;;;;4.14;84.19;99562.16;5036293;28;19966;-78
2022/04/10 00:27:38;;;;;;;;;;;;;;;4.14;84.29;99545.69;5054267;28;20624;-78
2022/04/10 00:30:04;;;;;;;;;;;;;;;4.14;84.31;99553.91;5055351;28;19967;-78
2022/04/10 00:32:29;;;;;;;;;;;;;;;4.11;85.11;99553.94;5035722;28;19927;-79
2022/04/10 00:34:56;;;;;;;;;;;;;;;4.09;84.86;99556.31;5054038;28;19921;-79
2022/04/10 00:37:21;;;;;;;;;;;;;;;4.09;85.21;99559.81;5036191;28;19978;-78
2022/04/10 00:39:47;;;;;;;;;;;;;;;4.04;85.10;99559.50;5055079;28;20015;-79
2022/04/10 00:42:12;;;;;;;;;;;;;;;4.02;85.36;99554.41;5057402;28;19920;-79
2022/04/10 00:44:39;;;;;;;;;;;;;;;3.99;85.68;99552.47;5022413;28;20056;-79
2022/04/10 00:47:05;;;;;;;;;;;;;;;3.97;85.88;99556.78;5043841;28;20022;-79
2022/04/10 00:49:30;;;;;;;;;;;;;;;3.93;86.62;99554.09;5073585;28;20368;-79
2022/04/10 00:51:56;;;;;;;;;;;;;;;3.91;86.43;99558.41;5057158;28;19920;-79
2022/04/10 00:54:25;;;;;;;;;;;;;;;3.88;86.71;99556.50;5050076;28;20423;-79
2022/04/10 00:56:51;;;;;;;;;;;;;;;3.85;87.07;99554.53;5048963;28;19927;-80
2022/04/10 00:59:16;;;;;;;;;;;;;;;3.79;87.34;99569.88;5066520;28;19921;-79
2022/04/10 01:01:48;;;;;;;;;;;;;;;3.77;87.26;99573.00;5309984;22;19928;-79
2022/04/10 01:04:14;;;;;;;;;;;;;;;3.74;87.58;99573.81;5050849;28;19971;-80
2022/04/10 01:06:40;;;;;;;;;;;;;;;3.70;87.21;99575.81;5035428;28;20396;-79
2022/04/10 01:09:06;;;;;;;;;;;;;;;3.70;87.34;99575.81;5044988;28;19920;-80
2022/04/10 01:11:35;;;;;;;;;;;;;;;3.67;87.33;99585.63;5044901;28;19928;-79
2022/04/10 01:14:01;;;;;;;;;;;;;;;3.64;87.29;99578.19;5052841;28;19921;-80
2022/04/10 01:16:28;;;;;;;;;;;;;;;3.61;87.54;99579.00;5047180;28;19928;-79
2022/04/10 01:18:54;;;;;;;;;;;;;;;3.58;87.75;99585.28;5055932;28;19917;-80
2022/04/10 01:21:24;;;;;;;;;;;;;;;3.61;87.42;99592.72;5036640;28;19921;-80
2022/04/10 01:23:53;;;;;;;;;;;;;;;3.62;87.25;99583.31;5052404;28;19927;-80
2022/04/10 01:26:19;;;;;;;;;;;;;;;3.60;87.64;99580.16;5068569;28;19921;-80
2022/04/10 01:29:04;;;;;;;;;;;;;;;3.60;86.88;99582.16;5040364;28;19947;-79
2022/04/10 01:31:32;;;;;;;;;;;;;;;3.60;86.81;99588.41;5036964;28;19929;-79
2022/04/10 01:33:59;;;;;;;;;;;;;;;3.59;87.09;99594.31;5033609;28;19928;-79
2022/04/10 01:36:25;;;;;;;;;;;;;;;3.56;87.07;99595.84;5052485;28;19925;-79
2022/04/10 01:38:51;;;;;;;;;;;;;;;3.52;87.57;99606.06;5052543;28;20067;-79
2022/04/10 01:41:17;;;;;;;;;;;;;;;3.50;87.14;99596.69;5034849;28;19928;-79
2022/04/10 01:43:46;;;;;;;;;;;;;;;3.50;87.43;99607.66;5052531;28;19921;-79
2022/04/10 01:46:15;;;;;;;;;;;;;;;3.45;87.74;99606.13;5052445;28;19964;-79
2022/04/10 01:48:40;;;;;;;;;;;;;;;3.44;87.55;99607.28;5051112;28;19975;-79
2022/04/10 01:51:06;;;;;;;;;;;;;;;3.41;87.63;99610.84;5015009;28;20330;-79
2022/04/10 01:53:31;;;;;;;;;;;;;;;3.36;88.29;99611.25;5044152;28;20420;-79
2022/04/10 01:55:57;;;;;;;;;;;;;;;3.32;88.24;99607.72;5051137;28;19921;-79
2022/04/10 01:58:22;;;;;;;;;;;;;;;3.31;88.60;99614.41;5033119;28;20404;-79
2022/04/10 02:00:48;;;;;;;;;;;;;;;3.33;88.51;99614.78;5052364;28;19928;-79
2022/04/10 02:03:14;;;;;;;;;;;;;;;3.31;88.79;99610.88;5042431;28;19987;-79
2022/04/10 02:05:39;;;;;;;;;;;;;;;3.32;88.67;99624.19;5071029;28;19924;-79
2022/04/10 02:08:05;;;;;;;;;;;;;;;3.32;88.83;99623.44;5070347;28;19956;-79
2022/04/10 02:10:30;;;;;;;;;;;;;;;3.34;88.49;99621.06;5071253;28;19921;-79
2022/04/10 02:12:56;;;;;;;;;;;;;;;3.34;88.74;99619.09;5071488;28;19962;-78
2022/04/10 02:15:21;;;;;;;;;;;;;;;3.39;88.32;99618.69;5072089;28;19967;-78
2022/04/10 02:17:46;;;;;;;;;;;;;;;3.42;88.48;99622.59;5037893;28;19920;-79
2022/04/10 02:20:12;;;;;;;;;;;;;;;3.42;88.46;99628.84;5068957;28;19925;-78
2022/04/10 02:22:37;;;;;;;;;;;;;;;3.46;87.97;99624.13;5069024;28;19925;-79
2022/04/10 02:25:03;;;;;;;;;;;;;;;3.46;87.72;99624.13;5069743;28;19920;-78
2022/04/10 02:27:29;;;;;;;;;;;;;;;3.51;87.55;99637.44;5054575;28;19921;-79
2022/04/10 02:29:54;;;;;;;;;;;;;;;3.51;87.40;99634.69;5070014;28;20293;-79
2022/04/10 02:32:20;;;;;;;;;;;;;;;3.47;87.31;99631.19;5068776;28;20373;-79
2022/04/10 02:34:46;;;;;;;;;;;;;;;3.47;87.28;99631.19;5070538;28;20018;-79
2022/04/10 02:37:11;;;;;;;;;;;;;;;3.48;87.48;99638.22;5069970;28;20018;-79
2022/04/10 02:39:37;;;;;;;;;;;;;;;3.47;87.50;99636.66;5069817;28;19921;-78
2022/04/10 02:42:02;;;;;;;;;;;;;;;3.47;87.95;99650.38;5070512;28;19971;-79
2022/04/10 02:44:28;;;;;;;;;;;;;;;3.47;87.62;99636.66;5070958;28;19920;-78
2022/04/10 02:46:53;;;;;;;;;;;;;;;3.48;87.46;99635.47;5070610;28;20388;-78
2022/04/10 02:49:19;;;;;;;;;;;;;;;3.49;87.67;99647.22;5057395;28;19995;-78
2022/04/10 02:51:47;;;;;;;;;;;;;;;3.51;86.98;99636.66;5070547;28;19931;-79
2022/04/10 02:54:14;;;;;;;;;;;;;;;3.55;86.84;99640.16;5070267;28;20404;-79
2022/04/10 02:56:39;;;;;;;;;;;;;;;3.57;86.64;99635.03;5071629;28;19920;-78
2022/04/10 02:59:04;;;;;;;;;;;;;;;3.62;86.66;99627.19;5052519;28;19951;-79
2022/04/10 03:01:30;;;;;;;;;;;;;;;3.63;86.11;99645.22;5068942;28;20339;-78
2022/04/10 03:03:56;;;;;;;;;;;;;;;3.64;85.75;99646.75;5052472;28;20385;-79
2022/04/10 03:06:23;;;;;;;;;;;;;;;3.65;85.89;99647.53;5049564;28;20293;-79
2022/04/10 03:08:48;;;;;;;;;;;;;;;3.66;86.35;99644.41;5050003;28;19929;-78
2022/04/10 03:11:14;;;;;;;;;;;;;;;3.67;85.86;99648.72;5050143;28;20358;-79
2022/04/10 03:13:40;;;;;;;;;;;;;;;3.65;86.07;99651.06;5032719;28;19943;-79
2022/04/10 03:16:07;;;;;;;;;;;;;;;3.68;85.85;99646.75;5029839;28;19943;-78
2022/04/10 03:18:33;;;;;;;;;;;;;;;3.66;86.00;99655.38;5030407;28;19925;-79
2022/04/10 03:20:59;;;;;;;;;;;;;;;3.68;85.77;99657.72;5028959;28;20376;-78
2022/04/10 03:23:25;;;;;;;;;;;;;;;3.70;85.39;99658.88;5013420;28;19967;-79
2022/04/10 03:25:50;;;;;;;;;;;;;;;3.70;85.91;99669.84;5030112;28;20382;-78
2022/04/10 03:28:16;;;;;;;;;;;;;;;3.70;85.54;99658.88;5032168;28;19931;-79
2022/04/10 03:30:42;;;;;;;;;;;;;;;3.71;85.36;99654.97;5031262;28;19921;-79
2022/04/10 03:33:08;;;;;;;;;;;;;;;3.73;85.45;99666.31;5030015;28;20271;-79
2022/04/10 03:35:34;;;;;;;;;;;;;;;3.70;85.73;99669.84;5033536;28;20019;-79
2022/04/10 03:38:03;;;;;;;;;;;;;;;3.71;85.97;99674.16;5049315;28;19921;-79
2022/04/10 03:40:29;;;;;;;;;;;;;;;3.72;86.22;99667.47;5049971;28;19920;-81
2022/04/10 03:42:54;;;;;;;;;;;;;;;3.73;86.01;99677.28;5032626;28;19956;-79
2022/04/10 03:45:21;;;;;;;;;;;;;;;3.72;86.35;99675.72;5029241;28;19928;-79
2022/04/10 03:47:47;;;;;;;;;;;;;;;3.74;85.64;99689.81;5048665;28;19920;-79
2022/04/10 03:50:13;;;;;;;;;;;;;;;3.75;86.15;99685.91;5048820;28;19928;-79
2022/04/10 03:52:39;;;;;;;;;;;;;;;3.76;85.86;99698.41;5032618;28;19921;-79
2022/04/10 03:55:05;;;;;;;;;;;;;;;3.79;85.52;99701.56;5031430;28;19925;-79
2022/04/10 03:57:31;;;;;;;;;;;;;;;3.78;85.86;99700.00;5028135;28;20008;-79
2022/04/10 04:00:00;;;;;;;;;;;;;;;3.78;85.54;99708.22;5038557;28;20001;-79
2022/04/10 04:02:29;;;;;;;;;;;;;;;3.76;86.06;99709.38;5036283;28;19921;-80
2022/04/10 04:04:54;;;;;;;;;;;;;;;3.75;86.23;99707.06;5068936;28;19978;-79
2022/04/10 04:07:21;;;;;;;;;;;;;;;3.77;85.86;99721.16;5044597;28;19925;-79
2022/04/10 04:09:47;;;;;;;;;;;;;;;3.74;86.32;99720.00;5048599;28;20427;-79
2022/04/10 04:12:12;;;;;;;;;;;;;;;3.76;85.80;99716.88;5066214;28;20381;-86
2022/04/10 04:14:41;;;;;;;;;;;;;;;3.76;86.01;99716.88;5052191;28;20383;-86
2022/04/10 04:17:07;;;;;;;;;;;;;;;3.79;85.59;99720.75;5052884;28;20375;-86
2022/04/10 04:19:32;;;;;;;;;;;;;;;3.78;85.91;99730.16;5068637;28;19941;-85
2022/04/10 04:21:58;;;;;;;;;;;;;;;3.76;85.92;99728.59;5070085;28;20015;-86
2022/04/10 04:24:24;;;;;;;;;;;;;;;3.75;86.34;99729.78;5032575;28;20006;-86
2022/04/10 04:26:50;;;;;;;;;;;;;;;3.74;86.43;99741.94;5049505;28;20373;-87
2022/04/10 04:29:16;;;;;;;;;;;;;;;3.74;86.30;99733.72;5066805;28;19924;-86
2022/04/10 04:31:42;;;;;;;;;;;;;;;3.75;86.04;99735.28;5070207;28;19928;-86
2022/04/10 04:34:11;;;;;;;;;;;;;;;3.75;86.37;99735.28;5050372;28;19924;-86
2022/04/10 04:36:37;;;;;;;;;;;;;;;3.75;86.43;99738.03;5051670;28;19921;-86
2022/04/10 04:39:03;;;;;;;;;;;;;;;3.77;86.78;99748.59;5051472;28;20266;-85
2022/04/10 04:41:29;;;;;;;;;;;;;;;3.80;86.52;99747.03;5050589;28;19928;-86
2022/04/10 04:43:55;;;;;;;;;;;;;;;3.80;86.67;99749.78;5051193;28;19928;-85
2022/04/10 04:46:20;;;;;;;;;;;;;;;3.84;86.17;99758.75;5051243;28;19925;-85
2022/04/10 04:48:46;;;;;;;;;;;;;;;3.85;86.31;99757.56;5049073;28;19979;-87
2022/04/10 04:51:15;;;;;;;;;;;;;;;3.87;86.02;99764.22;5038034;28;19920;-86
2022/04/10 04:53:41;;;;;;;;;;;;;;;3.87;85.83;99764.22;5064235;28;19920;-87
2022/04/10 04:56:06;;;;;;;;;;;;;;;3.88;85.97;99754.84;5053106;28;20423;-85
2022/04/10 04:58:35;;;;;;;;;;;;;;;3.89;86.03;99761.06;5055371;28;20023;-87
2022/04/10 05:01:02;;;;;;;;;;;;;;;3.90;85.91;99757.16;5055646;28;19920;-87
2022/04/10 05:03:29;;;;;;;;;;;;;;;3.91;85.45;99770.50;5071487;28;19935;-86
2022/04/10 05:05:55;;;;;;;;;;;;;;;3.92;85.60;99771.28;5052251;28;20364;-86
2022/04/10 05:08:26;;;;;;;;;;;;;;;3.93;86.05;99778.31;5056553;28;20473;-86
2022/04/10 05:10:53;;;;;;;;;;;;;;;3.95;85.65;99776.75;5067895;28;19920;-85
2022/04/10 05:13:20;;;;;;;;;;;;;;;3.96;85.87;99777.53;5038854;28;20389;-87
2022/04/10 05:15:45;;;;;;;;;;;;;;;3.97;85.44;99779.06;5072969;28;20023;-86
2022/04/10 05:18:13;;;;;;;;;;;;;;;3.99;86.16;99791.22;5051774;28;19925;-85
2022/04/10 05:20:43;;;;;;;;;;;;;;;4.03;86.24;99786.50;5062649;28;20480;-87
2022/04/10 05:23:16;;;;;;;;;;;;;;;4.07;85.49;99790.03;5073325;28;19932;-86
2022/04/10 05:25:42;;;;;;;;;;;;;;;4.10;85.83;99800.19;5070502;28;19920;-87
2022/04/10 05:28:08;;;;;;;;;;;;;;;4.17;85.04;99796.63;5054567;28;19927;-85
2022/04/10 05:30:34;;;;;;;;;;;;;;;4.20;84.25;99804.88;5053941;28;19921;-87
2022/04/10 05:33:00;;;;;;;;;;;;;;;4.26;83.84;99815.41;5053711;28;19925;-85
2022/04/10 05:35:27;;;;;;;;;;;;;;;4.30;83.58;99811.47;5071471;28;20325;-85
2022/04/10 05:37:53;;;;;;;;;;;;;;;4.40;83.91;99815.34;5055411;28;19920;-85
2022/04/10 05:40:18;;;;;;;;;;;;;;;4.44;83.56;99814.16;5051630;28;19920;-87
2022/04/10 05:42:45;;;;;;;;;;;;;;;4.51;82.76;99818.81;5065764;28;19920;-86
2022/04/10 05:45:12;;;;;;;;;;;;;;;4.56;82.09;99804.66;5055340;28;19927;-86
2022/04/10 05:47:43;;;;;;;;;;;;;;;4.62;82.55;99820.31;5055350;28;19978;-87
2022/04/10 05:50:09;;;;;;;;;;;;;;;4.70;82.83;99821.84;5057026;28;19921;-86
2022/04/10 05:52:39;;;;;;;;;;;;;;;4.79;81.26;99829.63;5054866;28;20470;-86
2022/04/10 05:55:06;;;;;;;;;;;;;;;4.87;81.27;99830.34;5071533;28;19920;-89
2022/04/10 05:57:32;;;;;;;;;;;;;;;4.99;80.80;99838.13;5044337;28;20342;-85
2022/04/10 05:59:57;;;;;;;;;;;;;;;5.15;81.38;99835.63;5053037;28;19921;-86
2022/04/10 06:02:24;;;;;;;;;;;;;;;5.23;78.71;99837.16;5054025;28;19938;-86
2022/04/10 06:04:49;;;;;;;;;;;;;;;5.35;77.93;99839.41;5054771;28;20436;-86
2022/04/10 06:07:15;;;;;;;;;;;;;;;5.49;78.62;99833.78;5072269;28;19928;-79
2022/04/10 06:09:41;;;;;;;;;;;;;;;5.52;78.40;99841.22;5050595;28;19952;-79
2022/04/10 06:12:07;;;;;;;;;;;;;;;5.53;77.49;99842.78;5071720;28;20006;-78
2022/04/10 06:14:39;;;;;;;;;;;;;;;5.62;78.37;99839.56;5054460;28;20290;-79
2022/04/10 06:17:07;;;;;;;;;;;;;;;5.69;78.29;99853.25;5054494;28;20266;-79
2022/04/10 06:19:34;;;;;;;;;;;;;;;5.74;77.65;99860.28;5053059;28;20411;-79
2022/04/10 06:22:00;;;;;;;;;;;;;;;5.71;77.41;99850.06;5049617;28;19920;-79
2022/04/10 06:24:27;;;;;;;;;;;;;;;5.85;76.58;99856.22;5050347;28;19932;-79
2022/04/10 06:26:53;;;;;;;;;;;;;;;5.95;78.04;99860.84;5066217;28;20026;-85
2022/04/10 06:29:20;;;;;;;;;;;;;;;6.11;75.12;99845.75;5069165;28;19999;-86
2022/04/10 06:31:50;;;;;;;;;;;;;;;6.07;76.27;99846.56;5051530;28;19927;-85
2022/04/10 06:34:17;;;;;;;;;;;;;;;6.01;76.19;99855.69;5052380;28;19929;-86
2022/04/10 06:36:43;;;;;;;;;;;;;;;6.06;75.73;99856.03;5067627;28;19939;-85
2022/04/10 06:39:10;;;;;;;;;;;;;;;6.26;76.33;99847.91;5051606;28;19924;-85
2022/04/10 06:41:36;;;;;;;;;;;;;;;6.29;74.90;99852.59;5068909;28;19967;-85
2022/04/10 06:44:07;;;;;;;;;;;;;;;6.31;75.35;99871.47;5051025;28;19927;-86
2022/04/10 06:46:45;;;;;;;;;;;;;;;6.28;73.99;99867.56;5050322;28;19924;-86
2022/04/10 06:49:18;;;;;;;;;;;;;;;6.50;74.54;99863.34;5033983;28;19921;-86
2022/04/10 06:51:44;;;;;;;;;;;;;;;6.60;73.82;99877.38;5040906;28;19924;-86
2022/04/10 06:54:11;;;;;;;;;;;;;;;6.71;73.36;99872.53;5051808;28;19924;-83
2022/04/10 06:56:37;;;;;;;;;;;;;;;7.00;71.99;99868.94;5048476;28;20435;-85
2022/04/10 06:59:02;;;;;;;;;;;;;;;7.08;70.79;99877.88;5068839;28;20014;-86
2022/04/10 07:01:28;;;;;;;;;;;;;;;7.23;71.39;99879.25;5065148;28;20355;-85
2022/04/10 07:03:54;;;;;;;;;;;;;;;7.52;70.68;99878.78;5042021;28;19928;-86
2022/04/10 07:06:28;;;;;;;;;;;;;;;7.88;69.76;99896.28;5047543;28;20118;-85
2022/04/10 07:08:53;;;;;;;;;;;;;;;7.93;68.30;99895.78;5047601;28;19924;-84
2022/04/10 07:11:25;;;;;;;;;;;;;;;8.26;65.58;99893.97;5045419;28;20389;-86
2022/04/10 07:13:51;;;;;;;;;;;;;;;8.05;64.01;99908.22;5051426;28;20029;-85
2022/04/10 07:16:16;;;;;;;;;;;;;;;7.85;65.76;99897.88;5044161;28;19978;-85
2022/04/10 07:18:43;;;;;;;;;;;;;;;7.85;64.93;99897.88;5051709;28;19967;-86
2022/04/10 07:21:14;;;;;;;;;;;;;;;7.81;64.79;99910.19;5047841;28;19920;-86
2022/04/10 07:23:44;;;;;;;;;;;;;;;7.54;65.90;99923.28;5053571;28;19931;-85
2022/04/10 07:26:19;;;;;;;;;;;;;;;7.52;67.67;99920.97;5033029;28;19921;-86
2022/04/10 07:28:52;;;;;;;;;;;;;;;7.64;66.58;99914.06;5057632;28;19920;-85
2022/04/10 07:31:20;;;;;;;;;;;;;;;7.66;67.63;99925.47;5068838;28;20350;-85
2022/04/10 07:33:46;;;;;;;;;;;;;;;7.94;67.38;99913.91;5045104;28;19927;-86
2022/04/10 07:36:42;;;;;;;;;;;;;;;8.34;66.59;99920.28;5067782;28;20279;-88
2022/04/10 07:39:08;;;;;;;;;;;;;;;8.68;65.01;99923.56;5047149;28;19920;-86
2022/04/10 07:41:38;;;;;;;;;;;;;;;8.62;64.06;99907.88;5042807;28;20333;-86
2022/04/10 07:44:13;;;;;;;;;;;;;;;8.65;64.63;99923.66;5059243;28;19927;-84
2022/04/10 07:49:24;;;;;;;;;;;;;;;8.12;65.61;99925.44;5055094;28;19960;-86
2022/04/10 07:51:59;;;;;;;;;;;;;;;8.24;66.51;99940.59;5049078;28;19967;-86
2022/04/10 07:54:41;;;;;;;;;;;;;;;8.31;65.06;99938.53;5066109;28;19927;-86
2022/04/10 07:57:06;;;;;;;;;;;;;;;8.19;65.73;99936.34;5066101;28;19921;-85
2022/04/10 07:59:33;;;;;;;;;;;;;;;8.12;66.17;99936.50;5053727;28;19920;-85
2022/04/10 08:01:59;;;;;;;;;;;;;;;8.26;66.28;99944.50;5061590;28;19927;-85
2022/04/10 08:04:29;;;;;;;;;;;;;;;8.39;65.58;99951.00;5064168;28;19927;-85
2022/04/10 08:07:11;;;;;;;;;;;;;;;8.37;65.89;99953.38;5053848;28;19920;-85
2022/04/10 08:09:36;;;;;;;;;;;;;;;8.76;64.95;99943.56;5067409;28;20428;-85
2022/04/10 08:12:02;;;;;;;;;;;;;;;8.95;63.83;99941.97;5050855;28;19990;-86
2022/04/10 08:14:27;;;;;;;;;;;;;;;8.89;63.60;99950.00;5062738;28;19920;-85
2022/04/10 08:16:53;;;;;;;;;;;;;;;9.05;62.10;99944.50;5069856;28;19940;-84
2022/04/10 08:19:18;;;;;;;;;;;;;;;9.29;62.41;99957.00;5067414;28;20018;-85
2022/04/10 08:21:44;;;;;;;;;;;;;;;9.46;60.50;99960.59;5067450;28;19994;-78
2022/04/10 08:24:09;;;;;;;;;;;;;;;9.48;60.29;99962.91;5066427;28;19931;-78
2022/04/10 08:26:35;;;;;;;;;;;;;;;9.66;60.58;99963.28;5066868;28;20590;-78
2022/04/10 08:29:00;;;;;;;;;;;;;;;9.90;58.72;99944.47;5069194;28;19929;-78
2022/04/10 08:31:28;;;;;;;;;;;;;;;9.96;57.30;99962.91;5066857;28;19920;-78
2022/04/10 08:33:53;;;;;;;;;;;;;;;9.84;55.99;99964.38;5070002;28;19920;-78
2022/04/10 08:36:19;;;;;;;;;;;;;;;9.68;57.04;99969.94;5055790;28;19973;-78
2022/04/10 08:38:45;;;;;;;;;;;;;;;9.83;57.04;99979.44;5068610;28;19927;-78
2022/04/10 08:41:11;;;;;;;;;;;;;;;9.73;56.43;99988.03;5067479;28;19928;-78
2022/04/10 08:43:36;;;;;;;;;;;;;;;9.59;56.14;99985.56;5057058;28;19932;-78
2022/04/10 08:46:02;;;;;;;;;;;;;;;9.66;55.00;99980.69;5072549;28;19981;-78
2022/04/10 08:48:28;;;;;;;;;;;;;;;9.48;56.61;99990.59;5056714;28;19970;-78
2022/04/10 08:50:57;;;;;;;;;;;;;;;9.40;55.90;99983.66;5054343;28;19920;-78
2022/04/10 08:53:25;;;;;;;;;;;;;;;9.26;58.33;99999.38;5068286;28;19933;-79
2022/04/10 08:55:51;;;;;;;;;;;;;;;9.56;58.00;99991.97;5065783;28;19951;-78
2022/04/10 08:58:18;;;;;;;;;;;;;;;10.03;55.97;99986.91;5069108;28;19921;-79
2022/04/10 09:00:43;;;;;;;;;;;;;;;10.37;51.91;99995.53;5070114;28;19996;-79
2022/04/10 09:03:09;;;;;;;;;;;;;;;10.55;50.34;99989.50;5072826;28;20373;-79
2022/04/10 09:05:34;;;;;;;;;;;;;;;10.66;51.90;99995.53;5067894;28;20078;-78
2022/04/10 09:08:13;;;;;;;;;;;;;;;10.81;51.66;99999.47;5072498;28;19921;-79
2022/04/10 09:11:01;;;;;;;;;;;;;;;11.26;48.91;99999.34;5069499;28;20333;-82
2022/04/10 09:13:37;;;;;;;;;;;;;;;11.13;46.35;99995.75;5040539;28;20320;-82
2022/04/10 09:16:14;;;;;;;;;;;;;;;11.16;46.19;100006.00;5054251;28;19928;-81
2022/04/10 09:18:54;;;;;;;;;;;;;;;11.13;45.00;99999.31;5053967;28;20011;-95
2022/04/10 09:21:23;;;;;;;;;;;;;;;11.17;46.14;100002.78;5053659;28;19928;-94
2022/04/10 09:23:53;;;;;;;;;;;;;;;11.05;46.41;100009.09;5055071;28;19935;-95
2022/04/10 09:26:18;;;;;;;;;;;;;;;10.93;45.48;99998.72;5053667;28;19924;-94
2022/04/10 09:28:46;;;;;;;;;;;;;;;11.20;46.06;99984.47;5074322;28;19927;-94
2022/04/10 09:31:41;;;;;;;;;;;;;;;11.17;44.96;100002.78;5079975;28;19992;-95
2022/04/10 09:34:10;;;;;;;;;;;;;;;11.38;44.78;99995.81;5072415;28;19921;-94
2022/04/10 09:36:36;;;;;;;;;;;;;;;11.37;43.41;99982.34;5076740;28;19935;-94
2022/04/10 09:39:03;;;;;;;;;;;;;;;11.30;44.18;99990.91;5077219;28;19921;-92
2022/04/10 09:41:29;;;;;;;;;;;;;;;11.27;44.32;99980.69;5077225;28;19924;-94
2022/04/10 09:43:58;;;;;;;;;;;;;;;11.71;43.73;99985.25;5079192;28;19924;-92
2022/04/10 09:46:23;;;;;;;;;;;;;;;11.78;42.42;99978.69;5078806;28;19928;-94
2022/04/10 09:48:49;;;;;;;;;;;;;;;11.58;42.29;99976.13;5079846;28;19920;-93
2022/04/10 09:51:14;;;;;;;;;;;;;;;11.82;43.30;99990.47;5078512;28;19924;-93
2022/04/10 09:53:40;;;;;;;;;;;;;;;12.20;42.26;99982.84;5075946;28;19978;-94
2022/04/10 09:56:06;;;;;;;;;;;;;;;12.28;40.43;99989.72;5075833;28;19921;-94
2022/04/10 09:58:32;;;;;;;;;;;;;;;12.27;41.16;99981.81;5074372;28;19928;-93
2022/04/10 10:01:02;;;;;;;;;;;;;;;12.12;40.95;99987.09;5074765;28;19924;-93
2022/04/10 10:03:28;;;;;;;;;;;;;;;12.28;41.16;99983.38;5073012;28;19924;-92
2022/04/10 10:05:55;;;;;;;;;;;;;;;12.14;41.93;99988.19;5073369;28;19921;-92
2022/04/10 10:08:21;;;;;;;;;;;;;;;12.10;41.24;99979.19;5073614;28;19920;-94
2022/04/10 10:10:47;;;;;;;;;;;;;;;12.18;41.26;100001.97;5055689;28;19928;-93
2022/04/10 10:13:15;;;;;;;;;;;;;;;12.17;41.49;99980.19;5056507;28;20343;-93
2022/04/10 10:15:41;;;;;;;;;;;;;;;12.27;41.34;99992.94;5055760;28;20403;-79
2022/04/10 10:18:07;;;;;;;;;;;;;;;11.92;40.67;99984.59;5054960;28;20412;-80
2022/04/10 10:20:33;;;;;;;;;;;;;;;11.70;42.62;99987.25;5072194;28;19951;-80
2022/04/10 10:23:02;;;;;;;;;;;;;;;11.61;42.75;99994.69;5072320;28;19972;-80
2022/04/10 10:25:28;;;;;;;;;;;;;;;11.06;43.14;99987.66;5072207;28;19920;-80
2022/04/10 10:28:12;;;;;;;;;;;;;;;11.07;44.02;99987.22;5072596;28;19925;-79
2022/04/10 10:30:50;;;;;;;;;;;;;;;11.28;43.45;99979.47;5070687;28;19927;-79
2022/04/10 10:33:22;;;;;;;;;;;;;;;11.23;42.89;99995.47;5072479;28;19924;-79
2022/04/10 10:35:48;;;;;;;;;;;;;;;11.52;42.50;99987.03;5072353;28;19929;-79
2022/04/10 10:38:18;;;;;;;;;;;;;;;11.94;43.00;99975.78;5050988;28;19935;-80
2022/04/10 10:40:43;;;;;;;;;;;;;;;12.37;40.96;99980.69;5052401;28;20534;-80
2022/04/10 10:43:08;;;;;;;;;;;;;;;12.44;40.73;99984.00;5051204;28;20011;-79
2022/04/10 10:45:37;;;;;;;;;;;;;;;12.38;42.05;99985.00;5051753;28;19925;-80
2022/04/10 10:48:22;;;;;;;;;;;;;;;12.42;39.92;99980.09;5052240;28;19952;-79
2022/04/10 10:50:49;;;;;;;;;;;;;;;12.73;39.83;99972.63;5052093;28;19972;-80
2022/04/10 10:53:14;;;;;;;;;;;;;;;12.32;38.90;99978.47;5068806;28;19927;-79
2022/04/10 10:55:46;;;;;;;;;;;;;;;11.93;40.29;99972.22;5071524;28;19916;-80
2022/04/10 10:58:15;;;;;;;;;;;;;;;11.77;40.47;99980.69;5054108;28;20011;-80
2022/04/10 11:00:41;;;;;;;;;;;;;;;11.78;41.47;99985.03;5071275;28;19956;-80
2022/04/10 11:03:09;;;;;;;;;;;;;;;11.79;40.28;99980.28;5053590;28;19982;-80
2022/04/10 11:05:39;;;;;;;;;;;;;;;11.88;41.79;99974.81;5071259;28;20015;-80
2022/04/10 11:08:08;;;;;;;;;;;;;;;12.00;39.47;99974.78;5054086;28;20014;-80
2022/04/10 11:11:02;;;;;;;;;;;;;;;12.12;39.44;99976.75;5071119;28;20288;-80
2022/04/10 11:13:37;;;;;;;;;;;;;;;12.16;38.85;99973.88;5071407;28;20402;-80
2022/04/10 11:16:08;;;;;;;;;;;;;;;12.14;40.54;99968.75;5071209;28;19952;-80
2022/04/10 11:18:36;;;;;;;;;;;;;;;12.05;39.21;99985.31;5071489;28;19924;-80
2022/04/10 11:21:07;;;;;;;;;;;;;;;12.00;39.57;99979.56;5070467;28;19916;-80
2022/04/10 11:23:36;;;;;;;;;;;;;;;12.01;39.22;99981.88;5071342;28;20290;-80
2022/04/10 11:26:07;;;;;;;;;;;;;;;12.04;39.02;99980.22;5071056;28;20510;-80
2022/04/10 11:28:52;;;;;;;;;;;;;;;12.59;39.06;99981.47;5071343;28;19927;-81
2022/04/10 11:31:31;;;;;;;;;;;;;;;12.75;37.29;99978.50;5069752;28;19935;-80
2022/04/10 11:34:06;;;;;;;;;;;;;;;12.33;37.83;99977.25;5071516;28;19928;-80
2022/04/10 11:36:43;;;;;;;;;;;;;;;12.11;38.13;99968.88;5070636;28;20010;-80
2022/04/10 11:39:09;;;;;;;;;;;;;;;12.42;38.94;99977.31;5071191;28;20332;-80
2022/04/10 11:41:34;;;;;;;;;;;;;;;12.40;36.92;99979.78;5070936;28;19927;-81
2022/04/10 11:43:59;;;;;;;;;;;;;;;12.33;36.67;99980.03;5070837;28;20031;-80
2022/04/10 11:46:26;;;;;;;;;;;;;;;11.94;37.45;99981.34;5070643;28;19921;-80
2022/04/10 11:48:51;;;;;;;;;;;;;;;11.80;39.08;99971.50;5054434;28;19920;-95
2022/04/10 11:51:17;;;;;;;;;;;;;;;12.20;38.90;99976.53;5072169;28;19921;-94
2022/04/10 11:53:43;;;;;;;;;;;;;;;12.58;37.53;99979.91;5072360;28;19917;-95
2022/04/10 11:56:11;;;;;;;;;;;;;;;12.75;36.26;99975.72;5072452;28;19951;-95
2022/04/10 11:58:37;;;;;;;;;;;;;;;12.48;37.29;99978.31;5071953;28;19921;-94
2022/04/10 12:01:02;;;;;;;;;;;;;;;12.60;36.07;99985.81;5071835;28;20371;-93
2022/04/10 12:03:29;;;;;;;;;;;;;;;12.77;34.58;99976.06;5071569;28;19920;-94
2022/04/10 12:05:54;;;;;;;;;;;;;;;12.82;33.12;99972.69;5075443;28;19924;-91
2022/04/10 12:08:20;;;;;;;;;;;;;;;12.95;32.35;99964.25;5075470;28;19981;-92
2022/04/10 12:10:52;;;;;;;;;;;;;;;12.80;32.82;99950.09;5075502;28;19923;-93
2022/04/10 12:13:18;;;;;;;;;;;;;;;12.92;35.48;99960.38;5075777;28;19927;-94
2022/04/10 12:15:43;;;;;;;;;;;;;;;12.91;35.15;99969.19;5075760;28;19924;-94
2022/04/10 12:18:09;;;;;;;;;;;;;;;12.77;35.49;99967.72;5076506;28;19921;-95
2022/04/10 12:20:35;;;;;;;;;;;;;;;12.95;35.34;99959.47;5076416;28;19928;-95
2022/04/10 12:23:01;;;;;;;;;;;;;;;12.81;31.95;99965.56;5076517;28;19924;-95
2022/04/10 12:25:27;;;;;;;;;;;;;;;12.89;32.46;99961.31;5058360;28;19916;-95
2022/04/10 12:27:52;;;;;;;;;;;;;;;12.92;31.63;99959.59;5076273;28;20293;-95
2022/04/10 12:30:18;;;;;;;;;;;;;;;13.03;32.26;99955.19;5073156;28;19920;-94
2022/04/10 12:32:44;;;;;;;;;;;;;;;13.39;32.66;99959.41;5075610;28;19920;-95
2022/04/10 12:35:10;;;;;;;;;;;;;;;13.71;32.12;99958.16;5059119;28;20301;-94
2022/04/10 12:37:36;;;;;;;;;;;;;;;13.66;33.15;99959.53;5076153;28;19925;-93
2022/04/10 12:40:04;;;;;;;;;;;;;;;13.86;32.82;99965.47;5059554;28;19920;-96
2022/04/10 12:42:36;;;;;;;;;;;;;;;13.55;32.83;99961.94;5075995;28;20503;-93
2022/04/10 12:45:03;;;;;;;;;;;;;;;12.74;33.56;99976.94;5075956;28;19920;-94
2022/04/10 12:47:47;;;;;;;;;;;;;;;12.60;35.13;99972.69;5058940;28;20245;-94
2022/04/10 12:50:13;;;;;;;;;;;;;;;12.94;34.56;99971.81;5077009;28;19999;-94
2022/04/10 12:52:39;;;;;;;;;;;;;;;13.15;32.43;99973.06;5076091;28;19924;-93
2022/04/10 12:55:25;;;;;;;;;;;;;;;13.25;32.59;99966.31;5076948;28;19916;-95
2022/04/10 12:58:01;;;;;;;;;;;;;;;13.53;33.49;99964.44;5076044;28;20365;-94